createdAt,value
2022-08-25T00:00:54.837Z,9.147157190635452
2022-08-25T00:07:18.524Z,8.872909698996656
2022-08-25T00:13:40.091Z,9.725752508361204
2022-08-25T00:20:01.315Z,8.565217391304348
2022-08-25T00:26:22.364Z,9.765886287625419
2022-08-25T00:32:43.472Z,11.73913043478261
2022-08-25T00:39:11.719Z,11.494983277591974
2022-08-25T00:45:32.406Z,10.327759197324415
2022-08-25T00:51:52.727Z,9.424749163879598
2022-08-25T00:58:13.324Z,9.993311036789297
2022-08-25T01:04:34.625Z,9.615384615384615
2022-08-25T01:11:16.353Z,10.91304347826087
2022-08-25T01:17:36.955Z,9.822742474916389
2022-08-25T01:24:04.892Z,10.555183946488294
2022-08-25T01:30:25.432Z,10.137123745819398
2022-08-25T01:36:45.958Z,12.23076923076923
2022-08-25T01:43:06.341Z,11.006688963210703
2022-08-25T01:49:27.195Z,11.672240802675585
2022-08-25T01:55:48.554Z,12.535117056856187
2022-08-25T02:02:09.585Z,12.08361204013378
2022-08-25T02:12:28.329Z,11.695652173913043
2022-08-25T02:18:49.527Z,12.602006688963211
2022-08-25T02:25:10.637Z,12.735785953177258
2022-08-25T02:31:43.546Z,12.73913043478261
2022-08-25T02:38:04.771Z,12.909698996655518
2022-08-25T02:44:25.641Z,13.441471571906355
2022-08-25T02:50:46.583Z,13.96989966555184
2022-08-25T03:03:16.346Z,14.953177257525084
2022-08-25T03:09:37.285Z,14.143812709030101
2022-08-25T03:21:16.245Z,15.535117056856187
2022-08-25T03:27:43.019Z,15.033444816053512
2022-08-25T03:37:43.276Z,16.775919732441473
2022-08-25T03:51:58.325Z,16.548494983277592
2022-08-25T04:03:53.263Z,16.63545150501672
2022-08-25T04:10:14.074Z,17.093645484949832
2022-08-25T04:16:35.478Z,18.274247491638796
2022-08-25T04:23:00.504Z,18.387959866220736
2022-08-25T04:29:24.396Z,18.130434782608695
2022-08-25T04:40:37.597Z,18.789297658862875
2022-08-25T04:46:58.821Z,19.528428093645484
2022-08-25T04:53:19.596Z,20.879598662207357
2022-08-25T04:59:40.449Z,19.929765886287626
2022-08-25T05:06:00.942Z,20.505016722408026
2022-08-25T05:12:22.003Z,21.665551839464882
2022-08-25T05:18:43.142Z,20.96989966555184
2022-08-25T05:25:13.782Z,21.735785953177256
2022-08-25T05:31:39.569Z,23.62541806020067
2022-08-25T05:47:06.867Z,23.531772575250837
2022-08-25T05:58:39.139Z,23.74916387959866
2022-08-25T06:05:01.507Z,24.48829431438127
2022-08-25T06:11:22.218Z,25.357859531772576
2022-08-25T06:17:43.792Z,23.79933110367893
2022-08-25T06:27:15.011Z,24.96989966555184
2022-08-25T06:33:36.363Z,23.779264214046822
2022-08-25T06:39:57.184Z,22.849498327759196
2022-08-25T06:46:52.092Z,24.070234113712374
2022-08-25T06:53:13.799Z,23.86622073578595
2022-08-25T06:59:35.659Z,23.40802675585284
2022-08-25T07:05:57.080Z,22.94648829431438
2022-08-25T07:12:19.345Z,24.531772575250837
2022-08-25T07:21:21.819Z,24.548494983277592
2022-08-25T07:27:47.169Z,24.37123745819398
2022-08-25T07:37:52.324Z,25.906354515050168
2022-08-25T07:46:35.753Z,22.270903010033443
2022-08-25T07:52:57.613Z,25.411371237458194
2022-08-25T08:00:47.152Z,24.468227424749163
2022-08-25T08:07:12.113Z,24.23076923076923
2022-08-25T08:37:36.462Z,21.31438127090301
2022-08-25T08:45:44.018Z,21.08026755852843
2022-08-25T08:52:05.411Z,22.08361204013378
2022-08-25T08:58:26.987Z,22.849498327759196
2022-08-25T09:04:48.303Z,21.438127090301002
2022-08-25T09:11:10.470Z,21.762541806020067
2022-08-25T09:18:39.001Z,20.0
2022-08-25T09:18:51.259Z,23.0
2022-08-25T09:18:54.727Z,23.0
2022-08-25T09:18:57.271Z,21.0
2022-08-25T09:18:59.303Z,19.0
2022-08-25T09:19:01.308Z,19.0
2022-08-25T09:19:03.325Z,20.0
2022-08-25T09:19:05.293Z,20.0
2022-08-25T09:19:08.743Z,18.0
2022-08-25T09:19:59.354Z,27.0
2022-08-25T09:20:02.586Z,26.0
2022-08-25T09:20:06.166Z,24.0
2022-08-25T09:20:30.108Z,24.0
2022-08-25T09:23:20.964Z,20.77257525083612
2022-08-25T09:29:44.199Z,21.70903010033445
2022-08-25T09:42:23.670Z,19.859531772575252
2022-08-25T09:48:48.520Z,19.792642140468228
2022-08-25T10:01:02.877Z,16.729096989966557
2022-08-25T10:07:26.351Z,16.06020066889632
2022-08-25T10:13:49.193Z,15.451505016722408
2022-08-25T10:20:13.596Z,15.127090301003344
2022-08-25T10:32:53.601Z,15.678929765886288
2022-08-25T10:51:35.683Z,16.561872909698998
2022-08-25T10:58:00.225Z,15.762541806020067
2022-08-25T11:08:28.325Z,16.816053511705686
2022-08-25T11:14:51.185Z,15.023411371237458
2022-08-25T11:21:14.615Z,13.949832775919733
2022-08-25T11:27:37.889Z,13.852842809364548
2022-08-25T11:39:34.411Z,14.906354515050166
2022-08-25T11:45:55.411Z,14.852842809364548
2022-08-25T11:54:55.589Z,14.899665551839465
2022-08-25T12:01:19.808Z,17.070234113712374
2022-08-25T12:07:41.811Z,15.173913043478262
2022-08-25T12:14:03.244Z,16.03344481605351
2022-08-25T12:22:04.291Z,14.304347826086957
2022-08-25T12:28:25.476Z,15.642140468227424
2022-08-25T12:39:09.704Z,15.347826086956522
2022-08-25T12:45:30.438Z,15.070234113712374
2022-08-25T12:51:51.989Z,14.525083612040135
2022-08-25T13:06:22.749Z,14.856187290969899
2022-08-25T13:12:44.067Z,15.280936454849499
2022-08-25T13:20:37.933Z,14.989966555183946
2022-08-25T13:26:58.691Z,15.0
2022-08-25T13:33:20.501Z,15.561872909698996
2022-08-25T13:39:55.866Z,15.327759197324415
2022-08-25T13:52:46.731Z,16.294314381270905
2022-08-25T13:59:09.891Z,14.505016722408026
2022-08-25T14:05:30.553Z,13.48494983277592
2022-08-25T14:11:53.759Z,15.270903010033445
2022-08-25T14:18:15.458Z,16.40802675585284
2022-08-25T14:24:40.885Z,16.183946488294314
2022-08-25T14:31:05.306Z,15.849498327759198
2022-08-25T14:50:41.026Z,14.809364548494983
2022-08-25T14:57:10.479Z,16.183946488294314
2022-08-25T15:03:33.689Z,14.74247491638796
2022-08-25T15:09:58.268Z,16.183946488294314
2022-08-25T15:16:23.961Z,18.548494983277592
2022-08-25T15:22:57.008Z,16.608695652173914
2022-08-25T15:30:04.242Z,17.662207357859533
2022-08-25T15:36:30.965Z,16.367892976588628
2022-08-25T15:45:46.859Z,15.939799331103679
2022-08-25T15:52:09.976Z,16.806020066889634
2022-08-25T15:58:31.292Z,16.598662207357858
2022-08-25T16:04:53.292Z,18.187290969899667
2022-08-25T16:17:36.831Z,17.37458193979933
2022-08-25T16:30:45.338Z,17.501672240802677
2022-08-25T16:37:14.655Z,15.88628762541806
2022-08-25T16:57:59.835Z,16.94983277591973
2022-08-25T17:05:14.192Z,16.585284280936456
2022-08-25T17:12:26.579Z,17.090301003344482
2022-08-25T17:18:48.387Z,17.558528428093645
2022-08-25T17:25:18.794Z,17.377926421404684
2022-08-25T17:31:40.651Z,16.889632107023413
2022-08-25T17:42:30.690Z,16.993311036789297
2022-08-25T17:48:53.482Z,16.498327759197323
2022-08-25T17:55:16.328Z,16.0
2022-08-25T18:07:19.027Z,16.26086956521739
2022-08-25T18:13:42.034Z,16.193979933110366
2022-08-25T18:20:04.068Z,16.846153846153847
2022-08-25T18:31:28.017Z,18.180602006688964
2022-08-25T18:37:53.812Z,19.337792642140467
2022-08-25T18:49:45.903Z,19.561872909698998
2022-08-25T18:56:45.879Z,20.672240802675585
2022-08-25T19:03:10.749Z,18.066889632107024
2022-08-25T19:13:32.800Z,18.652173913043477
2022-08-25T19:20:02.242Z,17.638795986622075
2022-08-25T19:26:34.285Z,17.52173913043478
2022-08-25T19:33:02.013Z,17.06354515050167
2022-08-25T19:39:52.994Z,17.548494983277592
2022-08-25T19:46:40.181Z,18.210702341137125
2022-08-25T19:53:35.396Z,18.2809364548495
2022-08-25T20:07:30.244Z,17.65551839464883
2022-08-25T20:14:12.547Z,17.070234113712374
2022-08-25T20:21:04.814Z,17.096989966555185
2022-08-25T20:37:41.763Z,16.775919732441473
2022-08-25T20:44:24.488Z,17.270903010033443
2022-08-25T20:54:50.470Z,16.535117056856187
2022-08-25T21:08:45.195Z,17.565217391304348
2022-08-25T21:15:18.180Z,16.05685618729097
2022-08-25T21:22:17.620Z,17.36454849498328
2022-08-25T21:28:47.583Z,17.60200668896321
2022-08-25T21:52:07.718Z,17.214046822742475
2022-08-25T21:58:28.925Z,17.752508361204015
2022-08-25T22:04:50.258Z,17.682274247491637
2022-08-25T22:11:11.232Z,17.304347826086957
2022-08-25T22:21:42.105Z,17.735785953177256
2022-08-25T22:28:14.446Z,18.735785953177256
2022-08-25T22:34:40.099Z,18.361204013377925
2022-08-25T22:41:01.860Z,18.16722408026756
2022-08-25T22:49:17.775Z,18.45484949832776
2022-08-25T22:55:38.911Z,19.070234113712374
2022-08-25T23:02:00.462Z,20.401337792642142
2022-08-25T23:08:27.112Z,20.568561872909697
2022-08-25T23:19:51.238Z,21.40802675585284
2022-08-25T23:26:13.927Z,19.441471571906355
2022-08-25T23:40:09.736Z,22.26086956521739
2022-08-25T23:46:31.667Z,22.88294314381271
2022-08-25T23:56:24.119Z,22.725752508361204
